Time;durP1;ratioP1;P1;durP2;ratioP2;P2;SDS_P1;SDS_P2;PMS_P1;PMS_P2;Temp;Humidity;BMP_temperature;BMP_pressure;BME280_temperature;BME280_humidity;BME280_pressure;Samples;Min_cycle;Max_cycle;Signal;HPM_P1;HPM_P2
2021/06/17 00:00:22;;;;;;;19.65;7.37;;;;;;;17.01;100.00;100585.05;1682393;83;21172;-59
2021/06/17 00:02:49;;;;;;;24.85;8.20;;;;;;;16.99;100.00;100581.58;1683211;83;21060;-59
2021/06/17 00:05:18;;;;;;;33.35;8.15;;;;;;;16.97;100.00;100579.42;1690956;83;21083;-59
2021/06/17 00:07:46;;;;;;;12.23;7.72;;;;;;;16.97;100.00;100582.98;1684497;83;21607;-58
2021/06/17 00:10:23;;;;;;;17.65;7.28;;;;;;;16.97;100.00;100586.19;1669956;83;21026;-59
2021/06/17 00:12:51;;;;;;;18.85;7.87;;;;;;;16.94;100.00;100578.27;1690330;82;21094;-58
2021/06/17 00:15:18;;;;;;;22.17;11.18;;;;;;;16.91;100.00;100564.44;1701540;82;20911;-59
2021/06/17 00:17:48;;;;;;;26.07;15.88;;;;;;;16.91;100.00;100552.25;1691756;82;20934;-58
2021/06/17 00:20:15;;;;;;;22.60;16.65;;;;;;;16.91;100.00;100553.60;1692884;82;21077;-59
2021/06/17 00:22:42;;;;;;;21.10;13.75;;;;;;;16.88;100.00;100554.66;1681895;83;21012;-58
2021/06/17 00:25:09;;;;;;;25.10;13.98;;;;;;;16.87;100.00;100555.63;1679108;83;21874;-58
2021/06/17 00:27:36;;;;;;;16.67;10.18;;;;;;;16.83;100.00;100547.33;1679727;83;20872;-59
2021/06/17 00:30:05;;;;;;;16.57;8.33;;;;;;;16.80;100.00;100548.88;1683123;83;20995;-58
2021/06/17 00:32:33;;;;;;;13.22;9.03;;;;;;;16.77;100.00;100554.50;1681364;83;21098;-58
2021/06/17 00:35:00;;;;;;;15.72;7.92;;;;;;;16.73;100.00;100550.26;1690045;83;21053;-58
2021/06/17 00:37:26;;;;;;;14.95;8.33;;;;;;;16.69;100.00;100551.39;1693523;83;21113;-58
2021/06/17 00:39:53;;;;;;;21.90;9.35;;;;;;;16.67;100.00;100550.62;1677444;83;21885;-58
2021/06/17 00:42:21;;;;;;;12.95;8.45;;;;;;;16.64;100.00;100542.70;1691065;83;20891;-58
2021/06/17 00:44:47;;;;;;;14.35;8.05;;;;;;;16.60;100.00;100540.20;1691251;83;21299;-59
2021/06/17 00:47:14;;;;;;;12.45;7.87;;;;;;;16.59;100.00;100540.32;1686180;83;20946;-58
2021/06/17 00:49:40;;;;;;;11.80;7.60;;;;;;;16.57;100.00;100539.05;1682906;83;21057;-59
2021/06/17 00:52:07;;;;;;;20.60;11.88;;;;;;;16.52;100.00;100530.36;1676377;83;20982;-58
2021/06/17 00:54:34;;;;;;;14.53;9.65;;;;;;;16.49;100.00;100535.97;1641242;85;21244;-59
2021/06/17 00:57:07;;;;;;;20.72;10.35;;;;;;;16.47;100.00;100536.56;1684005;83;21074;-59
2021/06/17 00:59:34;;;;;;;12.60;7.72;;;;;;;16.44;100.00;100544.84;1693404;83;21059;-59
2021/06/17 01:02:01;;;;;;;12.65;7.58;;;;;;;16.44;100.00;100555.66;1685033;82;33097;-60
2021/06/17 01:04:31;;;;;;;12.82;7.05;;;;;;;16.41;100.00;100555.86;1696454;83;21026;-58
2021/06/17 01:06:57;;;;;;;10.88;7.30;;;;;;;16.36;100.00;100552.58;1683812;83;20969;-58
2021/06/17 01:09:44;;;;;;;19.40;8.28;;;;;;;16.32;100.00;100555.48;1681367;83;21459;-58
2021/06/17 01:12:34;;;;;;;12.28;8.08;;;;;;;16.27;100.00;100553.55;1673615;83;21611;-60
2021/06/17 01:15:05;;;;;;;21.02;9.80;;;;;;;16.23;100.00;100561.95;1692542;83;21098;-59
2021/06/17 01:17:33;;;;;;;20.95;11.55;;;;;;;16.17;100.00;100551.02;1689842;82;21049;-59
2021/06/17 01:20:24;;;;;;;16.57;12.10;;;;;;;16.13;100.00;100544.06;1682878;83;21830;-58
2021/06/17 01:23:01;;;;;;;21.95;13.50;;;;;;;16.10;100.00;100552.37;1688850;83;21521;-58
2021/06/17 01:26:05;;;;;;;28.15;18.17;;;;;;;16.04;100.00;100549.55;1691567;83;21474;-59
2021/06/17 01:28:32;;;;;;;21.87;15.35;;;;;;;16.02;100.00;100549.63;1688566;83;21384;-59
2021/06/17 01:31:07;;;;;;;19.57;13.48;;;;;;;16.00;100.00;100554.27;1684863;83;21019;-58
2021/06/17 01:33:37;;;;;;;11.22;7.17;;;;;;;15.99;100.00;100563.34;1688474;83;21422;-59
2021/06/17 01:36:09;;;;;;;19.45;7.00;;;;;;;15.97;100.00;100570.68;1686566;83;21084;-58
2021/06/17 01:38:37;;;;;;;14.05;6.90;;;;;;;15.97;100.00;100572.03;1681003;83;22496;-58
2021/06/17 01:41:03;;;;;;;15.25;7.50;;;;;;;15.96;100.00;100575.70;1684183;83;21871;-58
2021/06/17 01:43:30;;;;;;;24.10;9.10;;;;;;;15.91;100.00;100585.93;1683067;83;20984;-58
2021/06/17 01:45:57;;;;;;;22.13;11.05;;;;;;;15.87;100.00;100578.94;1677862;83;21484;-58
2021/06/17 01:48:23;;;;;;;15.85;10.03;;;;;;;15.84;100.00;100577.78;1659760;83;21001;-58
2021/06/17 01:50:50;;;;;;;21.55;14.07;;;;;;;15.81;100.00;100583.38;1682674;83;21041;-58
2021/06/17 01:53:19;;;;;;;23.90;14.20;;;;;;;15.78;100.00;100580.36;1680661;83;21068;-58
2021/06/17 01:55:45;;;;;;;16.80;9.85;;;;;;;15.76;100.00;100569.63;1677035;83;21079;-58
2021/06/17 01:58:14;;;;;;;16.55;10.15;;;;;;;15.72;100.00;100570.78;1676561;83;21563;-58
2021/06/17 02:00:47;;;;;;;19.73;8.90;;;;;;;15.70;100.00;100572.70;1685432;83;21080;-59
2021/06/17 02:03:16;;;;;;;12.25;7.55;;;;;;;15.68;100.00;100571.05;1674403;83;21122;-59
2021/06/17 02:05:42;;;;;;;12.82;7.40;;;;;;;15.67;100.00;100586.41;1676151;83;21068;-58
2021/06/17 02:08:09;;;;;;;17.73;7.53;;;;;;;15.64;100.00;100585.23;1680910;83;21541;-58
2021/06/17 02:10:38;;;;;;;14.73;8.20;;;;;;;15.63;100.00;100595.66;1677663;83;21596;-59
2021/06/17 02:13:05;;;;;;;11.73;5.87;;;;;;;15.64;100.00;100592.45;1675771;83;21083;-58
2021/06/17 02:15:32;;;;;;;9.28;5.25;;;;;;;15.63;100.00;100598.36;1680260;83;20961;-59
2021/06/17 02:17:59;;;;;;;12.07;5.25;;;;;;;15.62;100.00;100593.92;1639014;83;21137;-59
2021/06/17 02:20:26;;;;;;;10.25;5.17;;;;;;;15.61;100.00;100596.23;1683797;83;21028;-59
2021/06/17 02:22:55;;;;;;;13.45;5.37;;;;;;;15.59;100.00;100584.64;1678688;83;21039;-59
2021/06/17 02:25:22;;;;;;;11.12;6.17;;;;;;;15.59;100.00;100579.24;1689491;83;21043;-58
2021/06/17 02:27:55;;;;;;;18.15;10.18;;;;;;;15.59;100.00;100571.98;1681219;83;21035;-60
2021/06/17 02:30:22;;;;;;;26.85;16.97;;;;;;;15.61;100.00;100575.97;1682426;83;21784;-59
2021/06/17 02:32:50;;;;;;;27.00;18.90;;;;;;;15.63;100.00;100578.09;1681629;83;21094;-58
2021/06/17 02:35:25;;;;;;;20.82;15.68;;;;;;;15.63;100.00;100580.80;1661823;84;21005;-59
2021/06/17 02:37:59;;;;;;;27.25;14.83;;;;;;;15.64;100.00;100587.05;1679407;83;20951;-59
2021/06/17 02:40:29;;;;;;;14.33;7.62;;;;;;;15.65;100.00;100588.33;1675092;82;21129;-59
2021/06/17 02:42:56;;;;;;;16.30;5.83;;;;;;;15.63;100.00;100590.25;1686141;83;21503;-59
2021/06/17 02:45:27;;;;;;;11.95;6.37;;;;;;;15.62;100.00;100589.87;1685787;83;20998;-58
2021/06/17 02:47:54;;;;;;;12.45;5.75;;;;;;;15.64;100.00;100592.45;1683654;83;21058;-59
2021/06/17 02:50:21;;;;;;;8.18;5.25;;;;;;;15.62;100.00;100592.56;1680632;83;20995;-58
2021/06/17 02:52:47;;;;;;;10.95;5.85;;;;;;;15.60;100.00;100609.36;1691064;83;21029;-59
2021/06/17 02:55:14;;;;;;;13.38;7.58;;;;;;;15.57;100.00;100613.09;1679396;83;20966;-58
2021/06/17 02:58:27;;;;;;;12.82;7.40;;;;;;;15.53;100.00;100606.13;1683262;83;20928;-57
2021/06/17 03:01:16;;;;;;;9.43;6.25;;;;;;;15.50;100.00;100608.13;1676926;82;20994;-57
2021/06/17 03:03:53;;;;;;;11.73;5.45;;;;;;;15.47;100.00;100604.65;1682834;83;21433;-57
2021/06/17 03:06:27;;;;;;;15.13;5.90;;;;;;;15.47;100.00;100606.00;1683774;83;21037;-56
2021/06/17 03:08:59;;;;;;;11.38;6.80;;;;;;;15.50;100.00;100601.38;1684788;83;21105;-57
2021/06/17 03:11:27;;;;;;;16.25;7.50;;;;;;;15.50;100.00;100610.83;1683432;82;21087;-57
2021/06/17 03:13:56;;;;;;;12.07;8.63;;;;;;;15.50;100.00;100613.53;1679711;83;20986;-57
2021/06/17 03:16:27;;;;;;;21.95;14.18;;;;;;;15.51;100.00;100617.98;1694222;82;20919;-57
2021/06/17 03:18:55;;;;;;;17.27;8.38;;;;;;;15.52;100.00;100615.20;1664346;84;21101;-57
2021/06/17 03:21:22;;;;;;;10.13;6.12;;;;;;;15.55;100.00;100623.59;1661387;84;21160;-56
2021/06/17 03:23:49;;;;;;;10.70;7.55;;;;;;;15.56;100.00;100622.63;1680383;83;21025;-56
2021/06/17 03:26:16;;;;;;;19.35;8.78;;;;;;;15.58;100.00;100619.35;1672533;84;20952;-56
2021/06/17 03:28:42;;;;;;;14.58;8.08;;;;;;;15.59;100.00;100612.52;1680012;83;20979;-56
2021/06/17 03:31:10;;;;;;;17.65;7.67;;;;;;;15.63;100.00;100614.58;1681111;83;21208;-56
2021/06/17 03:33:37;;;;;;;20.35;12.18;;;;;;;15.67;100.00;100623.35;1684500;82;21109;-57
2021/06/17 03:36:06;;;;;;;19.57;11.40;;;;;;;15.69;100.00;100629.53;1671681;83;20965;-56
2021/06/17 03:38:35;;;;;;;18.25;8.80;;;;;;;15.72;100.00;100630.23;1682896;83;21073;-56
2021/06/17 03:41:02;;;;;;;21.05;10.35;;;;;;;15.78;100.00;100637.59;1684070;83;21491;-57
2021/06/17 03:43:31;;;;;;;21.85;13.90;;;;;;;15.80;100.00;100638.36;1682973;83;21090;-56
2021/06/17 03:45:57;;;;;;;22.70;14.40;;;;;;;15.86;100.00;100643.43;1694671;83;21752;-57
2021/06/17 03:48:24;;;;;;;15.90;8.45;;;;;;;15.93;100.00;100657.00;1691679;83;21055;-56
2021/06/17 03:50:50;;;;;;;21.07;7.08;;;;;;;15.97;100.00;100663.96;1689546;83;21024;-58
2021/06/17 03:53:19;;;;;;;13.43;5.33;;;;;;;16.04;100.00;100669.88;1655365;85;20993;-57
2021/06/17 03:55:45;;;;;;;13.40;6.70;;;;;;;16.10;100.00;100655.13;1637805;85;20913;-56
2021/06/17 03:58:12;;;;;;;13.15;9.40;;;;;;;16.15;100.00;100656.61;1656903;85;21111;-57
2021/06/17 04:00:38;;;;;;;19.40;12.43;;;;;;;16.21;100.00;100655.34;1653332;85;20887;-57
2021/06/17 04:03:07;;;;;;;13.43;9.75;;;;;;;16.26;100.00;100653.25;1672578;83;31582;-57
2021/06/17 04:05:37;;;;;;;12.65;7.00;;;;;;;16.31;100.00;100646.19;1638323;84;21056;-57
2021/06/17 04:08:07;;;;;;;14.63;5.90;;;;;;;16.40;100.00;100670.46;1659054;84;20986;-56
2021/06/17 04:10:33;;;;;;;19.65;6.25;;;;;;;16.47;100.00;100667.30;1659904;83;22479;-57
2021/06/17 04:13:00;;;;;;;21.52;8.48;;;;;;;16.55;100.00;100658.70;1664530;84;21147;-58
2021/06/17 04:15:27;;;;;;;19.92;10.78;;;;;;;16.65;100.00;100656.77;1665244;83;21118;-58
2021/06/17 04:17:59;;;;;;;16.12;10.00;;;;;;;16.76;100.00;100661.05;1665301;83;21005;-58
2021/06/17 04:20:32;;;;;;;32.78;17.05;;;;;;;16.83;100.00;100661.03;1660451;83;21451;-58
2021/06/17 04:22:59;;;;;;;31.95;20.27;;;;;;;16.89;100.00;100666.06;1673960;83;21959;-58
2021/06/17 04:25:25;;;;;;;34.27;20.50;;;;;;;17.00;100.00;100655.08;1665213;83;20962;-57
2021/06/17 04:27:57;;;;;;;22.40;13.65;;;;;;;17.11;100.00;100655.25;1661727;83;21018;-57
2021/06/17 04:30:24;;;;;;;27.30;18.40;;;;;;;17.22;100.00;100653.20;1641775;84;21086;-57
2021/06/17 04:32:51;;;;;;;25.97;13.72;;;;;;;17.31;100.00;100653.98;1664425;83;21661;-57
2021/06/17 04:35:20;;;;;;;17.70;11.93;;;;;;;17.39;100.00;100652.12;1667261;83;21160;-56
2021/06/17 04:37:47;;;;;;;21.23;12.30;;;;;;;17.47;100.00;100653.84;1663286;84;21050;-57
2021/06/17 04:40:15;;;;;;;16.12;9.13;;;;;;;17.53;100.00;100648.97;1659838;84;21487;-58
2021/06/17 04:42:41;;;;;;;13.15;5.28;;;;;;;17.60;100.00;100645.76;1660033;83;20986;-58
2021/06/17 04:45:09;;;;;;;12.35;5.20;;;;;;;17.72;100.00;100644.06;1673213;83;21393;-56
2021/06/17 04:47:37;;;;;;;11.80;4.22;;;;;;;17.81;100.00;100636.31;1661688;84;21865;-56
2021/06/17 04:50:08;;;;;;;11.03;4.50;;;;;;;17.89;100.00;100646.99;1669836;83;21232;-56
2021/06/17 04:52:39;;;;;;;13.15;5.60;;;;;;;17.93;100.00;100643.59;1660696;83;21941;-57
2021/06/17 04:55:07;;;;;;;11.65;5.45;;;;;;;18.00;99.51;100636.77;1665103;84;21131;-57
2021/06/17 04:57:33;;;;;;;11.08;4.65;;;;;;;18.11;99.08;100638.78;1675977;83;21175;-58
2021/06/17 05:00:00;;;;;;;12.50;5.08;;;;;;;18.25;99.48;100636.50;1661917;84;21147;-56
2021/06/17 05:02:27;;;;;;;10.00;4.90;;;;;;;18.44;99.18;100636.55;1689102;83;41243;-56
2021/06/17 05:04:53;;;;;;;16.60;5.12;;;;;;;18.59;97.69;100631.91;1700838;82;21218;-56
2021/06/17 05:12:32;;;;;;;9.83;4.55;;;;;;;18.89;94.46;100654.62;1696675;83;21573;-57
2021/06/17 05:14:59;;;;;;;13.70;4.65;;;;;;;18.92;93.65;100649.97;1696014;82;21718;-57
2021/06/17 05:17:25;;;;;;;9.00;4.65;;;;;;;18.93;93.34;100651.70;1697161;82;20985;-57
2021/06/17 05:19:52;;;;;;;8.53;4.53;;;;;;;18.91;92.82;100646.38;1696404;83;21474;-57
2021/06/17 05:22:20;;;;;;;10.23;4.15;;;;;;;18.94;93.42;100652.09;1696805;83;20926;-57
2021/06/17 05:24:47;;;;;;;6.33;4.20;;;;;;;19.00;92.24;100660.66;1693979;83;21520;-56
2021/06/17 05:27:13;;;;;;;6.62;4.30;;;;;;;19.02;91.81;100668.72;1697400;84;21628;-57
2021/06/17 05:29:40;;;;;;;7.67;5.03;;;;;;;19.04;92.21;100657.25;1663132;84;21486;-58
2021/06/17 05:32:09;;;;;;;8.93;4.45;;;;;;;19.10;92.32;100668.17;1655742;84;21004;-57
2021/06/17 05:34:35;;;;;;;7.83;5.40;;;;;;;19.09;91.08;100684.95;1696337;82;20859;-57
2021/06/17 05:37:02;;;;;;;14.28;5.00;;;;;;;19.10;91.48;100679.89;1692479;82;21307;-57
2021/06/17 05:39:28;;;;;;;7.00;4.50;;;;;;;19.16;91.19;100678.11;1701627;82;21822;-57
2021/06/17 05:41:55;;;;;;;12.95;6.83;;;;;;;19.20;90.99;100676.52;1699643;82;21092;-57
2021/06/17 05:44:22;;;;;;;22.52;12.90;;;;;;;19.20;90.68;100687.39;1700359;82;21430;-58
2021/06/17 05:46:49;;;;;;;14.07;10.08;;;;;;;19.25;90.62;100677.05;1694325;82;21012;-57
2021/06/17 05:49:16;;;;;;;9.83;6.42;;;;;;;19.32;90.33;100703.67;1694431;82;21641;-56
2021/06/17 05:51:44;;;;;;;11.00;5.50;;;;;;;19.35;89.61;100696.27;1694851;82;21044;-58
2021/06/17 05:54:11;;;;;;;9.80;5.60;;;;;;;19.31;89.52;100698.34;1689984;82;21455;-55
2021/06/17 05:56:38;;;;;;;14.15;5.45;;;;;;;19.30;89.15;100695.24;1691864;83;21123;-56
2021/06/17 05:59:05;;;;;;;11.55;4.90;;;;;;;19.27;88.77;100684.13;1689351;83;20930;-56
2021/06/17 06:01:31;;;;;;;9.43;4.80;;;;;;;19.24;89.38;100678.03;1692313;83;21464;-58
2021/06/17 06:03:58;;;;;;;9.83;4.40;;;;;;;19.26;89.96;100671.52;1693203;82;21000;-57
2021/06/17 06:06:25;;;;;;;8.48;4.47;;;;;;;19.27;90.00;100671.02;1689696;82;20967;-56
2021/06/17 06:08:52;;;;;;;14.60;5.15;;;;;;;19.24;89.68;100669.88;1689036;82;21137;-58
2021/06/17 06:11:19;;;;;;;11.90;5.12;;;;;;;19.18;89.71;100669.35;1650339;84;21798;-57
2021/06/17 06:13:46;;;;;;;12.90;4.87;;;;;;;19.13;90.37;100660.68;1631508;85;21156;-57
2021/06/17 06:16:13;;;;;;;7.83;5.03;;;;;;;19.13;90.86;100663.39;1640301;85;21052;-57
2021/06/17 06:18:40;;;;;;;11.22;4.97;;;;;;;19.14;91.31;100658.34;1626192;86;21018;-57
2021/06/17 06:21:10;;;;;;;8.88;5.05;;;;;;;19.12;90.94;100674.36;1639671;85;21064;-57
2021/06/17 06:23:36;;;;;;;10.53;5.28;;;;;;;19.06;91.22;100678.38;1637682;85;20949;-58
2021/06/17 06:26:03;;;;;;;9.10;5.03;;;;;;;19.01;91.95;100673.78;1632817;85;21120;-58
2021/06/17 06:28:32;;;;;;;10.88;4.42;;;;;;;19.06;92.68;100676.17;1639141;85;21124;-57
2021/06/17 06:30:59;;;;;;;8.83;4.65;;;;;;;19.09;92.23;100667.80;1651504;84;21104;-57
2021/06/17 06:33:26;;;;;;;7.47;4.30;;;;;;;19.09;92.75;100668.64;1654272;84;21412;-56
2021/06/17 06:35:56;;;;;;;11.08;4.72;;;;;;;19.08;93.10;100665.55;1690774;82;21498;-57
2021/06/17 06:38:23;;;;;;;11.20;4.20;;;;;;;19.02;93.62;100663.28;1697298;82;21522;-58
2021/06/17 06:40:50;;;;;;;6.45;4.25;;;;;;;19.03;93.81;100671.34;1696082;82;21021;-57
2021/06/17 06:43:17;;;;;;;10.60;4.55;;;;;;;19.02;94.06;100679.59;1694645;82;21581;-59
2021/06/17 06:45:46;;;;;;;8.35;5.08;;;;;;;19.00;94.31;100681.55;1692317;82;21096;-57
2021/06/17 06:48:13;;;;;;;8.70;4.67;;;;;;;19.02;94.54;100680.95;1679213;83;21111;-57
2021/06/17 06:50:40;;;;;;;11.50;4.70;;;;;;;19.01;94.79;100686.00;1693276;82;21047;-56
2021/06/17 06:53:07;;;;;;;11.45;5.22;;;;;;;19.00;95.35;100679.69;1667535;83;21333;-57
2021/06/17 06:55:35;;;;;;;19.05;7.45;;;;;;;19.01;95.38;100697.75;1665040;83;21001;-57
2021/06/17 06:58:05;;;;;;;35.15;17.12;;;;;;;19.05;95.66;100701.09;1667230;84;21436;-57
2021/06/17 07:00:33;;;;;;;32.30;16.27;;;;;;;19.09;95.64;100709.41;1690998;82;136713;-59
2021/06/17 07:03:00;;;;;;;28.60;15.78;;;;;;;19.13;95.73;100720.45;1693618;82;21432;-57
2021/06/17 07:05:27;;;;;;;9.28;6.90;;;;;;;19.14;95.65;100702.28;1697849;82;21016;-57
2021/06/17 07:07:54;;;;;;;17.07;9.50;;;;;;;19.14;95.15;100716.76;1696499;82;21235;-57
2021/06/17 07:10:23;;;;;;;9.85;5.90;;;;;;;19.10;95.65;100708.42;1697619;82;21020;-57
2021/06/17 07:12:50;;;;;;;18.77;8.25;;;;;;;19.10;95.50;100704.34;1694726;82;21088;-56
2021/06/17 07:15:17;;;;;;;11.55;7.67;;;;;;;19.02;95.17;100708.12;1693651;82;21989;-58
2021/06/17 07:17:47;;;;;;;10.98;5.75;;;;;;;18.98;95.66;100694.34;1659219;84;21071;-58
2021/06/17 07:20:14;;;;;;;8.60;4.70;;;;;;;19.01;96.32;100691.44;1660192;84;22386;-58
2021/06/17 07:22:40;;;;;;;9.38;4.70;;;;;;;19.10;96.50;100702.14;1660019;84;21069;-56
2021/06/17 07:25:08;;;;;;;10.23;6.78;;;;;;;19.18;95.99;100722.34;1650757;84;21002;-56
2021/06/17 07:27:35;;;;;;;14.15;6.45;;;;;;;19.24;95.91;100716.08;1690754;83;21053;-58
2021/06/17 07:30:03;;;;;;;11.50;7.17;;;;;;;19.26;96.18;100724.99;1689708;82;21069;-57
2021/06/17 07:32:30;;;;;;;11.22;6.40;;;;;;;19.29;96.75;100720.69;1655724;84;21025;-57
2021/06/17 07:34:57;;;;;;;14.28;7.60;;;;;;;19.30;97.29;100725.14;1691232;82;21143;-57
2021/06/17 07:37:24;;;;;;;14.90;6.80;;;;;;;19.34;97.51;100733.45;1680925;83;21376;-57
2021/06/17 07:39:51;;;;;;;9.55;5.33;;;;;;;19.35;97.58;100731.61;1696326;82;21161;-57
2021/06/17 07:42:17;;;;;;;9.93;5.20;;;;;;;19.32;98.09;100733.58;1696232;82;21538;-56
2021/06/17 07:44:44;;;;;;;10.28;5.75;;;;;;;19.30;98.63;100730.58;1696905;82;20957;-58
2021/06/17 07:47:11;;;;;;;8.53;4.92;;;;;;;19.29;99.26;100732.92;1691850;82;21451;-58
2021/06/17 07:49:38;;;;;;;8.63;5.10;;;;;;;19.29;100.00;100727.48;1695597;83;20922;-58
2021/06/17 07:52:05;;;;;;;7.03;5.08;;;;;;;19.32;100.00;100733.58;1698612;82;21037;-58
2021/06/17 07:54:32;;;;;;;11.00;5.95;;;;;;;19.34;100.00;100729.38;1697280;82;21627;-58
2021/06/17 07:56:59;;;;;;;12.90;5.40;;;;;;;19.38;100.00;100734.98;1692291;82;20989;-58
2021/06/17 07:59:26;;;;;;;8.45;5.95;;;;;;;19.42;100.00;100746.02;1648053;85;20945;-58
2021/06/17 08:01:54;;;;;;;8.48;5.78;;;;;;;19.44;100.00;100760.36;1640655;85;44153;-58
2021/06/17 08:04:26;;;;;;;9.78;6.15;;;;;;;19.40;100.00;100758.85;1643629;85;21979;-58
2021/06/17 08:06:54;;;;;;;8.18;6.22;;;;;;;19.35;100.00;100759.67;1647239;85;21014;-58
2021/06/17 08:09:27;;;;;;;9.13;6.00;;;;;;;19.27;100.00;100766.14;1627157;85;22654;-56
2021/06/17 08:11:55;;;;;;;15.48;6.25;;;;;;;19.18;100.00;100776.70;1644352;85;20962;-58
2021/06/17 08:14:25;;;;;;;16.23;6.95;;;;;;;19.09;100.00;100781.91;1694483;82;20972;-59
2021/06/17 08:16:54;;;;;;;11.50;7.10;;;;;;;18.98;100.00;100784.00;1658062;84;21142;-58
2021/06/17 08:19:32;;;;;;;12.00;6.15;;;;;;;18.87;100.00;100789.67;1655370;85;21029;-59
2021/06/17 08:22:06;;;;;;;10.90;6.08;;;;;;;18.79;100.00;100793.42;1652421;85;21549;-59
2021/06/17 08:24:40;;;;;;;12.58;6.53;;;;;;;18.68;100.00;100789.20;1652834;85;21535;-57
2021/06/17 08:27:07;;;;;;;13.45;6.80;;;;;;;18.59;100.00;100780.73;1647345;84;20972;-58
2021/06/17 08:29:34;;;;;;;11.97;7.03;;;;;;;18.54;100.00;100777.94;1661472;84;21476;-58
2021/06/17 08:32:01;;;;;;;8.88;6.15;;;;;;;18.53;100.00;100777.08;1660814;84;21021;-58
2021/06/17 08:34:28;;;;;;;11.60;7.28;;;;;;;18.49;100.00;100768.77;1662209;84;22378;-57
2021/06/17 08:36:55;;;;;;;12.60;7.30;;;;;;;18.42;100.00;100757.93;1661455;84;21016;-59
2021/06/17 08:39:23;;;;;;;9.30;6.22;;;;;;;18.36;100.00;100751.57;1660501;83;21506;-58
2021/06/17 08:41:50;;;;;;;16.37;8.33;;;;;;;18.32;100.00;100744.11;1661554;84;21620;-58
2021/06/17 08:44:18;;;;;;;19.82;9.60;;;;;;;18.26;100.00;100749.49;1644748;84;21030;-57
2021/06/17 08:46:46;;;;;;;13.60;7.20;;;;;;;18.25;100.00;100739.61;1665310;83;21019;-59
2021/06/17 08:49:15;;;;;;;11.97;7.85;;;;;;;18.26;100.00;100729.14;1662855;83;21030;-57
2021/06/17 08:51:44;;;;;;;16.60;8.48;;;;;;;18.27;100.00;100730.88;1700803;82;21052;-61
2021/06/17 08:54:13;;;;;;;19.07;9.55;;;;;;;18.31;100.00;100732.88;1684949;82;21459;-59
2021/06/17 08:56:42;;;;;;;14.40;7.58;;;;;;;18.31;100.00;100735.12;1679006;83;21071;-60
2021/06/17 08:59:10;;;;;;;15.55;9.48;;;;;;;18.32;100.00;100721.92;1697288;82;21009;-62
2021/06/17 09:01:39;;;;;;;14.68;8.50;;;;;;;18.35;100.00;100718.63;1692895;82;85893;-59
2021/06/17 09:04:21;;;;;;;20.57;10.20;;;;;;;18.40;100.00;100716.45;1695220;82;21607;-60
2021/06/17 09:07:12;;;;;;;16.77;9.03;;;;;;;18.46;100.00;100724.20;1675956;82;21514;-60
2021/06/17 09:09:48;;;;;;;16.12;9.08;;;;;;;18.50;100.00;100717.58;1690382;82;21098;-58
2021/06/17 09:12:19;;;;;;;12.85;8.15;;;;;;;18.57;100.00;100716.16;1661486;84;21077;-61
2021/06/17 09:14:54;;;;;;;12.28;8.35;;;;;;;18.66;100.00;100715.13;1693153;82;20998;-59
2021/06/17 09:17:22;;;;;;;8.48;6.28;;;;;;;18.72;100.00;100710.65;1698500;82;36447;-59
2021/06/17 09:19:51;;;;;;;13.20;8.18;;;;;;;18.76;100.00;100708.09;1697004;82;21136;-59
2021/06/17 09:22:22;;;;;;;11.65;7.53;;;;;;;18.75;100.00;100717.22;1699808;82;20937;-59
2021/06/17 09:24:51;;;;;;;11.05;7.28;;;;;;;18.79;100.00;100714.66;1701811;82;21067;-60
2021/06/17 09:27:25;;;;;;;8.75;6.08;;;;;;;18.82;100.00;100702.22;1674073;84;20926;-59
2021/06/17 09:29:56;;;;;;;9.50;6.92;;;;;;;18.82;100.00;100714.44;1696070;82;21714;-59
2021/06/17 09:32:29;;;;;;;16.52;7.33;;;;;;;18.83;100.00;100706.67;1690369;82;21654;-59
2021/06/17 09:34:57;;;;;;;7.00;5.10;;;;;;;18.86;100.00;100696.94;1695844;82;21584;-60
2021/06/17 09:37:34;;;;;;;7.75;5.60;;;;;;;18.94;100.00;100686.04;1681167;83;21056;-60
2021/06/17 09:40:32;;;;;;;14.80;6.70;;;;;;;18.98;100.00;100702.50;1664635;83;21199;-60
2021/06/17 09:43:24;;;;;;;6.30;4.90;;;;;;;19.00;100.00;100706.86;1697201;83;20929;-60
2021/06/17 09:46:05;;;;;;;12.28;4.87;;;;;;;19.05;100.00;100706.53;1670444;83;22027;-60
2021/06/17 09:48:44;;;;;;;7.55;5.55;;;;;;;19.10;100.00;100707.57;1693689;82;21076;-60
2021/06/17 09:51:40;;;;;;;9.23;5.55;;;;;;;19.09;100.00;100701.25;1701857;82;21802;-59
2021/06/17 09:54:26;;;;;;;8.78;6.22;;;;;;;19.07;100.00;100689.62;1693786;82;21491;-61
2021/06/17 09:56:59;;;;;;;9.63;6.33;;;;;;;19.04;100.00;100677.16;1701337;82;21011;-57
2021/06/17 09:59:45;;;;;;;9.43;5.00;;;;;;;19.08;100.00;100634.30;1686905;82;21130;-60
2021/06/17 10:02:29;;;;;;;7.08;5.20;;;;;;;19.11;100.00;100632.72;1664837;84;37406;-60
2021/06/17 10:05:19;;;;;;;6.50;4.83;;;;;;;19.14;100.00;100643.39;1685098;83;21821;-60
2021/06/17 10:07:44;;;;;;;6.62;5.42;;;;;;;19.12;100.00;100637.68;1688599;82;21156;-60
2021/06/17 10:10:15;;;;;;;9.65;5.70;;;;;;;19.13;100.00;100632.62;1694335;82;21132;-60
2021/06/17 10:12:42;;;;;;;6.50;5.37;;;;;;;19.16;100.00;100622.41;1688882;82;21553;-59
2021/06/17 10:15:09;;;;;;;6.22;5.55;;;;;;;19.22;100.00;100625.64;1696343;82;21076;-58
2021/06/17 10:17:36;;;;;;;9.05;5.85;;;;;;;19.20;100.00;100620.81;1692167;82;21083;-60
2021/06/17 10:20:05;;;;;;;8.35;5.78;;;;;;;19.23;100.00;100608.36;1695024;82;21402;-59
2021/06/17 10:22:32;;;;;;;9.05;5.42;;;;;;;19.25;100.00;100609.99;1699173;83;21100;-59
2021/06/17 10:25:00;;;;;;;7.03;5.55;;;;;;;19.29;100.00;100601.09;1694600;82;21128;-60
2021/06/17 10:27:41;;;;;;;5.58;4.60;;;;;;;19.30;100.00;100606.91;1676550;82;21477;-60
2021/06/17 10:30:08;;;;;;;6.15;4.42;;;;;;;19.32;100.00;100596.79;1630495;85;21105;-60
2021/06/17 10:32:43;;;;;;;5.95;4.80;;;;;;;19.34;100.00;100600.25;1632076;86;22292;-60
2021/06/17 10:35:10;;;;;;;5.35;4.78;;;;;;;19.38;100.00;100601.79;1629980;86;21128;-56
2021/06/17 10:37:52;;;;;;;7.17;4.60;;;;;;;19.39;100.00;100594.02;1632524;86;21814;-59
2021/06/17 10:40:29;;;;;;;5.40;4.40;;;;;;;19.41;100.00;100587.96;1640837;85;22228;-57
2021/06/17 10:42:55;;;;;;;7.90;4.70;;;;;;;19.41;100.00;100581.16;1587465;87;22049;-58
2021/06/17 10:45:45;;;;;;;5.97;4.62;;;;;;;19.42;100.00;100582.02;1595984;86;21086;-57
2021/06/17 10:50:56;;;;;;;5.03;4.30;;;;;;;19.39;100.00;100574.98;1619989;84;21151;-57
2021/06/17 10:53:43;;;;;;;5.53;4.80;;;;;;;19.38;100.00;100574.61;1636464;84;21052;-55
2021/06/17 10:56:23;;;;;;;4.80;4.30;;;;;;;19.39;100.00;100583.61;1646610;84;21208;-55
2021/06/17 10:58:51;;;;;;;7.08;4.50;;;;;;;19.40;100.00;100578.08;1665738;84;21450;-55
2021/06/17 11:01:26;;;;;;;5.62;4.50;;;;;;;19.44;100.00;100573.25;1667843;84;21638;-57
2021/06/17 11:04:23;;;;;;;7.92;4.92;;;;;;;19.44;100.00;100580.94;1668110;84;22323;-57
2021/06/17 11:07:05;;;;;;;5.37;4.47;;;;;;;19.49;100.00;100567.48;1664515;84;21049;-56
2021/06/17 11:09:47;;;;;;;7.03;4.70;;;;;;;19.55;100.00;100563.80;1658398;84;21000;-55
2021/06/17 11:12:25;;;;;;;5.70;4.90;;;;;;;19.66;100.00;100579.30;1662946;84;21058;-54
2021/06/17 11:15:01;;;;;;;5.85;5.12;;;;;;;19.76;100.00;100578.95;1668561;84;21010;-55
2021/06/17 11:17:34;;;;;;;8.23;5.70;;;;;;;19.85;100.00;100579.25;1666004;84;21125;-55
2021/06/17 11:22:54;;;;;;;7.58;6.62;;;;;;;19.99;100.00;100588.59;1667212;84;21638;-56
2021/06/17 11:25:21;;;;;;;6.90;5.70;;;;;;;19.99;100.00;100598.11;1672456;83;21474;-58
2021/06/17 11:28:07;;;;;;;7.15;5.12;;;;;;;19.94;100.00;100597.61;1678287;83;21884;-57
2021/06/17 11:30:53;;;;;;;7.55;5.67;;;;;;;19.89;100.00;100597.07;1687506;82;21458;-56
2021/06/17 11:33:33;;;;;;;7.53;5.20;;;;;;;19.81;100.00;100613.13;1694914;82;21017;-55
2021/06/17 11:36:03;;;;;;;7.67;5.10;;;;;;;19.65;100.00;100607.95;1695671;82;21148;-57